createdAt,value
2018-07-14T00:00:34.525Z,1005.72
2018-07-14T00:01:15.041Z,1005.7
2018-07-14T00:01:55.569Z,1005.69
2018-07-14T00:02:36.103Z,1005.7
2018-07-14T00:03:16.631Z,1005.73
2018-07-14T00:03:57.165Z,1005.72
2018-07-14T00:04:37.694Z,1005.74
2018-07-14T00:05:18.217Z,1005.72
2018-07-14T00:05:58.736Z,1005.72
2018-07-14T00:06:39.256Z,1005.72
2018-07-14T00:07:19.796Z,1005.71
2018-07-14T00:08:00.317Z,1005.69
2018-07-14T00:08:40.848Z,1005.7
2018-07-14T00:09:21.376Z,1005.76
2018-07-14T00:10:01.939Z,1005.69
2018-07-14T00:10:42.446Z,1005.7
2018-07-14T00:11:22.960Z,1005.7
2018-07-14T00:12:03.494Z,1005.74
2018-07-14T00:12:44.036Z,1005.71
2018-07-14T00:13:24.564Z,1005.71
2018-07-14T00:14:05.086Z,1005.7
2018-07-14T00:14:45.637Z,1005.68
2018-07-14T00:15:26.150Z,1005.67
2018-07-14T00:16:06.676Z,1005.68
2018-07-14T00:16:47.187Z,1005.68
2018-07-14T00:17:27.721Z,1005.69
2018-07-14T00:18:08.245Z,1005.67
2018-07-14T00:18:48.771Z,1005.7
2018-07-14T00:19:29.305Z,1005.67
2018-07-14T00:20:09.832Z,1005.66
2018-07-14T00:20:50.361Z,1005.64
2018-07-14T00:21:30.895Z,1005.66
2018-07-14T00:22:11.419Z,1005.63
2018-07-14T00:22:51.937Z,1005.61
2018-07-14T00:23:32.449Z,1005.66
2018-07-14T00:24:13.002Z,1005.67
2018-07-14T00:24:53.507Z,1005.62
2018-07-14T00:25:34.035Z,1005.62
2018-07-14T00:26:14.560Z,1005.59
2018-07-14T00:26:55.087Z,1005.58
2018-07-14T00:27:35.652Z,1005.58
2018-07-14T00:28:16.181Z,1005.59
2018-07-14T00:28:56.704Z,1005.58
2018-07-14T00:29:37.232Z,1005.56
2018-07-14T00:30:17.756Z,1005.51
2018-07-14T00:30:58.287Z,1005.58
2018-07-14T00:31:38.805Z,1005.6
2018-07-14T00:32:19.339Z,1005.56
2018-07-14T00:32:59.881Z,1005.56
2018-07-14T00:33:40.400Z,1005.58
2018-07-14T00:34:20.931Z,1005.55
2018-07-14T00:35:01.470Z,1005.54
2018-07-14T00:35:42.010Z,1005.57
2018-07-14T00:36:22.532Z,1005.59
2018-07-14T00:37:03.049Z,1005.56
2018-07-14T00:37:43.588Z,1005.54
2018-07-14T00:38:24.110Z,1005.57
2018-07-14T00:39:04.637Z,1005.53
2018-07-14T00:39:45.150Z,1005.56
2018-07-14T00:40:25.697Z,1005.52
2018-07-14T00:41:06.219Z,1005.54
2018-07-14T00:41:46.743Z,1005.55
2018-07-14T00:42:27.276Z,1005.56
2018-07-14T00:43:07.786Z,1005.56
2018-07-14T00:43:48.326Z,1005.59
2018-07-14T00:44:28.843Z,1005.57
2018-07-14T00:45:09.387Z,1005.58
2018-07-14T00:45:49.904Z,1005.57
2018-07-14T00:46:30.438Z,1005.57
2018-07-14T00:47:10.947Z,1005.61
2018-07-14T00:47:51.481Z,1005.64
2018-07-14T00:48:32.008Z,1005.64
2018-07-14T00:49:12.549Z,1005.56
2018-07-14T00:49:53.084Z,1005.6
2018-07-14T00:50:33.615Z,1005.59
2018-07-14T00:51:14.138Z,1005.55
2018-07-14T00:51:54.672Z,1005.54
2018-07-14T00:52:35.189Z,1005.55
2018-07-14T00:53:15.710Z,1005.54
2018-07-14T00:53:56.235Z,1005.53
2018-07-14T00:54:36.754Z,1005.55
2018-07-14T00:55:17.306Z,1005.54
2018-07-14T00:55:57.835Z,1005.54
2018-07-14T00:56:38.362Z,1005.56
2018-07-14T00:57:18.889Z,1005.54
2018-07-14T00:57:59.398Z,1005.55
2018-07-14T00:58:39.926Z,1005.53
2018-07-14T00:59:20.442Z,1005.53
2018-07-14T01:00:00.956Z,1005.52
2018-07-14T01:00:41.486Z,1005.52
2018-07-14T01:01:22.006Z,1005.55
2018-07-14T01:02:02.562Z,1005.57
2018-07-14T01:02:43.030Z,1005.56
2018-07-14T01:03:23.561Z,1005.57
2018-07-14T01:04:04.088Z,1005.58
2018-07-14T01:04:44.620Z,1005.57
2018-07-14T01:05:25.137Z,1005.6
2018-07-14T01:06:05.666Z,1005.56
2018-07-14T01:06:46.178Z,1005.55
2018-07-14T01:07:26.694Z,1005.58
2018-07-14T01:08:07.223Z,1005.58
2018-07-14T01:08:47.756Z,1005.57
2018-07-14T01:09:28.284Z,1005.53
2018-07-14T01:10:08.820Z,1005.58
2018-07-14T01:10:49.347Z,1005.58
2018-07-14T01:11:29.875Z,1005.54
2018-07-14T01:12:10.410Z,1005.61
2018-07-14T01:12:50.938Z,1005.58
2018-07-14T01:13:31.453Z,1005.6
2018-07-14T01:14:11.969Z,1005.59
2018-07-14T01:14:52.495Z,1005.57
2018-07-14T01:15:33.015Z,1005.54
2018-07-14T01:16:13.546Z,1005.59
2018-07-14T01:16:54.069Z,1005.54
2018-07-14T01:17:34.598Z,1005.55
2018-07-14T01:18:15.130Z,1005.55
2018-07-14T01:18:55.680Z,1005.57
2018-07-14T01:19:36.203Z,1005.53
2018-07-14T01:20:16.738Z,1005.55
2018-07-14T01:20:57.272Z,1005.55
2018-07-14T01:21:37.802Z,1005.56
2018-07-14T01:22:18.336Z,1005.55
2018-07-14T01:22:58.865Z,1005.57
2018-07-14T01:23:39.386Z,1005.55
2018-07-14T01:24:19.906Z,1005.55
2018-07-14T01:25:00.424Z,1005.6
2018-07-14T01:25:40.948Z,1005.61
2018-07-14T01:26:21.473Z,1005.66
2018-07-14T01:27:01.991Z,1005.57
2018-07-14T01:27:42.514Z,1005.63
2018-07-14T01:28:23.042Z,1005.63
2018-07-14T01:29:03.565Z,1005.67
2018-07-14T01:29:44.087Z,1005.63
2018-07-14T01:30:24.611Z,1005.63
2018-07-14T01:31:05.135Z,1005.67
2018-07-14T01:31:45.648Z,1005.64
2018-07-14T01:32:26.156Z,1005.66
2018-07-14T01:33:06.691Z,1005.71
2018-07-14T01:33:47.218Z,1005.7
2018-07-14T01:34:27.750Z,1005.65
2018-07-14T01:35:08.267Z,1005.63
2018-07-14T01:35:48.795Z,1005.65
2018-07-14T01:36:29.329Z,1005.64
2018-07-14T01:37:09.858Z,1005.63
2018-07-14T01:37:50.389Z,1005.68
2018-07-14T01:38:30.903Z,1005.63
2018-07-14T01:39:11.422Z,1005.66
2018-07-14T01:39:51.944Z,1005.64
2018-07-14T01:40:32.490Z,1005.64
2018-07-14T01:41:12.992Z,1005.66
2018-07-14T01:41:53.508Z,1005.63
2018-07-14T01:42:34.033Z,1005.67
2018-07-14T01:43:14.557Z,1005.66
2018-07-14T01:43:55.089Z,1005.65
2018-07-14T01:44:35.630Z,1005.65
2018-07-14T01:45:16.166Z,1005.59
2018-07-14T01:45:56.684Z,1005.65
2018-07-14T01:46:37.207Z,1005.62
2018-07-14T01:47:17.735Z,1005.63
2018-07-14T01:47:58.271Z,1005.58
2018-07-14T01:48:38.792Z,1005.52
2018-07-14T01:49:19.319Z,1005.57
2018-07-14T01:49:59.839Z,1005.55
2018-07-14T01:50:40.358Z,1005.54
2018-07-14T01:51:20.887Z,1005.53
2018-07-14T01:52:01.402Z,1005.52
2018-07-14T01:52:41.918Z,1005.51
2018-07-14T01:53:22.471Z,1005.51
2018-07-14T01:54:02.988Z,1005.54
2018-07-14T01:54:43.519Z,1005.46
2018-07-14T01:55:24.054Z,1005.5
2018-07-14T01:56:04.574Z,1005.51
2018-07-14T01:56:45.090Z,1005.51
2018-07-14T01:57:25.605Z,1005.47
2018-07-14T01:58:06.129Z,1005.5
2018-07-14T01:58:46.661Z,1005.5
2018-07-14T01:59:27.192Z,1005.51
2018-07-14T02:00:07.706Z,1005.52
2018-07-14T02:00:48.244Z,1005.54
2018-07-14T02:01:28.776Z,1005.55
2018-07-14T02:02:09.295Z,1005.53
2018-07-14T02:02:49.819Z,1005.52
2018-07-14T02:03:30.355Z,1005.51
2018-07-14T02:04:10.882Z,1005.52
2018-07-14T02:04:51.393Z,1005.5
2018-07-14T02:05:31.909Z,1005.51
2018-07-14T02:06:12.460Z,1005.52
2018-07-14T02:06:52.973Z,1005.53
2018-07-14T02:07:33.504Z,1005.54
2018-07-14T02:08:14.050Z,1005.49
2018-07-14T02:08:54.569Z,1005.49
2018-07-14T02:09:35.117Z,1005.53
2018-07-14T02:10:15.639Z,1005.53
2018-07-14T02:10:56.208Z,1005.52
2018-07-14T02:11:36.728Z,1005.52
2018-07-14T02:12:17.256Z,1005.57
2018-07-14T02:12:57.770Z,1005.5
2018-07-14T02:13:38.300Z,1005.55
2018-07-14T02:14:18.822Z,1005.56
2018-07-14T02:14:59.342Z,1005.55
2018-07-14T02:15:39.865Z,1005.55
2018-07-14T02:16:20.389Z,1005.6
2018-07-14T02:17:00.928Z,1005.55
2018-07-14T02:17:41.438Z,1005.54
2018-07-14T02:18:21.974Z,1005.58
2018-07-14T02:19:02.504Z,1005.54
2018-07-14T02:19:43.027Z,1005.6
2018-07-14T02:20:23.553Z,1005.61
2018-07-14T02:21:04.073Z,1005.59
2018-07-14T02:21:44.597Z,1005.58
2018-07-14T02:22:25.134Z,1005.58
2018-07-14T02:23:05.661Z,1005.59
2018-07-14T02:23:46.192Z,1005.62
2018-07-14T02:24:26.725Z,1005.58
2018-07-14T02:25:07.245Z,1005.62
2018-07-14T02:25:47.763Z,1005.6
2018-07-14T02:26:28.274Z,1005.58
2018-07-14T02:27:08.803Z,1005.55
2018-07-14T02:27:49.326Z,1005.54
2018-07-14T02:28:29.850Z,1005.51
2018-07-14T02:29:10.380Z,1005.53
2018-07-14T02:29:50.898Z,1005.57
2018-07-14T02:30:31.414Z,1005.62
2018-07-14T02:31:11.960Z,1005.54
2018-07-14T02:31:52.473Z,1005.54
2018-07-14T02:32:33.007Z,1005.57
2018-07-14T02:33:13.551Z,1005.55
2018-07-14T02:33:54.072Z,1005.55
2018-07-14T02:34:34.597Z,1005.55
2018-07-14T02:35:15.126Z,1005.55
2018-07-14T02:35:55.662Z,1005.51
2018-07-14T02:36:36.195Z,1005.5
2018-07-14T02:37:16.714Z,1005.54
2018-07-14T02:37:57.247Z,1005.5
2018-07-14T02:38:37.779Z,1005.51
2018-07-14T02:39:18.304Z,1005.51
2018-07-14T02:39:58.837Z,1005.51
2018-07-14T02:40:39.366Z,1005.5
2018-07-14T02:41:19.904Z,1005.48
2018-07-14T02:42:00.431Z,1005.49
2018-07-14T02:42:40.959Z,1005.49
2018-07-14T02:43:21.484Z,1005.45
2018-07-14T02:44:01.998Z,1005.46
2018-07-14T02:44:42.520Z,1005.43
2018-07-14T02:45:23.059Z,1005.44
2018-07-14T02:46:03.599Z,1005.46
2018-07-14T02:46:44.121Z,1005.46
2018-07-14T02:47:24.659Z,1005.43
2018-07-14T02:48:05.184Z,1005.43
2018-07-14T02:48:45.707Z,1005.41
2018-07-14T02:49:26.233Z,1005.42
2018-07-14T02:50:06.750Z,1005.43
2018-07-14T02:50:47.296Z,1005.39
2018-07-14T02:51:27.805Z,1005.4
2018-07-14T02:52:08.344Z,1005.44
2018-07-14T02:52:48.865Z,1005.43
2018-07-14T02:53:29.400Z,1005.44
2018-07-14T02:54:09.921Z,1005.41
2018-07-14T02:54:50.445Z,1005.41
2018-07-14T02:55:30.967Z,1005.44
2018-07-14T02:56:11.505Z,1005.38
2018-07-14T02:56:52.038Z,1005.43
2018-07-14T02:57:32.562Z,1005.44
2018-07-14T02:58:13.097Z,1005.43
2018-07-14T02:58:53.608Z,1005.39
2018-07-14T02:59:34.145Z,1005.39
2018-07-14T03:00:14.676Z,1005.4
2018-07-14T03:00:55.210Z,1005.41
2018-07-14T03:01:35.710Z,1005.45
2018-07-14T03:02:16.236Z,1005.42
2018-07-14T03:02:56.776Z,1005.43
2018-07-14T03:03:37.298Z,1005.46
2018-07-14T03:04:17.825Z,1005.44
2018-07-14T03:04:58.346Z,1005.46
2018-07-14T03:05:38.853Z,1005.43
2018-07-14T03:06:19.385Z,1005.45
2018-07-14T03:06:59.914Z,1005.46
2018-07-14T03:07:40.448Z,1005.49
2018-07-14T03:08:20.960Z,1005.49
2018-07-14T03:09:01.496Z,1005.5
2018-07-14T03:09:42.010Z,1005.56
2018-07-14T03:10:22.530Z,1005.52
2018-07-14T03:11:03.044Z,1005.55
2018-07-14T03:11:43.589Z,1005.52
2018-07-14T03:12:24.100Z,1005.55
2018-07-14T03:13:04.622Z,1005.56
2018-07-14T03:13:45.154Z,1005.58
2018-07-14T03:14:25.685Z,1005.55
2018-07-14T03:15:06.202Z,1005.57
2018-07-14T03:15:46.722Z,1005.58
2018-07-14T03:16:27.250Z,1005.58
2018-07-14T03:17:07.792Z,1005.52
2018-07-14T03:17:48.307Z,1005.55
2018-07-14T03:18:28.829Z,1005.54
2018-07-14T03:19:09.344Z,1005.57
2018-07-14T03:19:49.867Z,1005.56
2018-07-14T03:20:30.392Z,1005.54
2018-07-14T03:21:10.907Z,1005.5
2018-07-14T03:21:51.417Z,1005.55
2018-07-14T03:22:31.961Z,1005.55
2018-07-14T03:23:12.487Z,1005.52
2018-07-14T03:23:53.913Z,1005.54
2018-07-14T03:24:34.429Z,1005.5
2018-07-14T03:25:14.970Z,1005.52
2018-07-14T03:25:55.510Z,1005.48
2018-07-14T03:26:36.024Z,1005.53
2018-07-14T03:27:16.543Z,1005.55
2018-07-14T03:27:57.064Z,1005.49
2018-07-14T03:28:37.591Z,1005.47
2018-07-14T03:29:18.111Z,1005.46
2018-07-14T03:29:58.634Z,1005.47
2018-07-14T03:30:39.128Z,1005.49
2018-07-14T03:31:19.650Z,1005.48
2018-07-14T03:32:00.174Z,1005.44
2018-07-14T03:32:40.784Z,1005.4
2018-07-14T03:33:21.393Z,1005.43
2018-07-14T03:34:01.806Z,1005.39
2018-07-14T03:34:42.328Z,1005.4
2018-07-14T03:35:22.833Z,1005.38
2018-07-14T03:36:03.357Z,1005.4
2018-07-14T03:36:44.009Z,1005.41
2018-07-14T03:37:24.404Z,1005.37
2018-07-14T03:38:04.921Z,1005.42
2018-07-14T03:38:45.452Z,1005.43
2018-07-14T03:39:25.974Z,1005.4
2018-07-14T03:40:06.490Z,1005.4
2018-07-14T03:40:47.012Z,1005.39
2018-07-14T03:41:27.544Z,1005.44
2018-07-14T03:42:08.072Z,1005.42
2018-07-14T03:42:48.611Z,1005.4
2018-07-14T03:43:29.119Z,1005.41
2018-07-14T03:44:09.649Z,1005.4
2018-07-14T03:44:50.178Z,1005.34
2018-07-14T03:45:30.704Z,1005.37
2018-07-14T03:46:11.236Z,1005.35
2018-07-14T03:46:51.757Z,1005.38
2018-07-14T03:47:32.278Z,1005.38
2018-07-14T03:48:12.803Z,1005.39
2018-07-14T03:48:53.328Z,1005.35
2018-07-14T03:49:33.867Z,1005.37
2018-07-14T03:50:14.400Z,1005.4
2018-07-14T03:50:54.933Z,1005.45
2018-07-14T03:51:35.454Z,1005.45
2018-07-14T03:52:15.976Z,1005.44
2018-07-14T03:52:56.578Z,1005.41
2018-07-14T03:53:37.020Z,1005.38
2018-07-14T03:54:17.550Z,1005.44
2018-07-14T03:54:58.057Z,1005.36
2018-07-14T03:55:38.584Z,1005.4
2018-07-14T03:56:19.101Z,1005.44
2018-07-14T03:56:59.648Z,1005.41
2018-07-14T03:57:40.166Z,1005.46
2018-07-14T03:58:20.696Z,1005.42
2018-07-14T03:59:01.211Z,1005.44
2018-07-14T03:59:41.739Z,1005.43
2018-07-14T04:00:22.260Z,1005.44
2018-07-14T04:01:02.789Z,1005.42
2018-07-14T04:01:43.305Z,1005.45
2018-07-14T04:02:23.832Z,1005.39
2018-07-14T04:03:04.342Z,1005.44
2018-07-14T04:03:44.876Z,1005.41
2018-07-14T04:04:25.414Z,1005.41
2018-07-14T04:05:05.917Z,1005.4
2018-07-14T04:05:46.445Z,1005.42
2018-07-14T04:06:26.999Z,1005.39
2018-07-14T04:07:07.476Z,1005.42
2018-07-14T04:07:47.997Z,1005.4
2018-07-14T04:08:28.532Z,1005.43
2018-07-14T04:09:09.047Z,1005.42
2018-07-14T04:09:49.568Z,1005.42
2018-07-14T04:10:30.087Z,1005.42
2018-07-14T04:11:10.607Z,1005.45
2018-07-14T04:11:51.135Z,1005.42
2018-07-14T04:12:31.672Z,1005.47
2018-07-14T04:13:12.196Z,1005.44
2018-07-14T04:13:52.733Z,1005.43
2018-07-14T04:14:33.249Z,1005.43
2018-07-14T04:15:13.770Z,1005.43
2018-07-14T04:15:54.283Z,1005.47
2018-07-14T04:16:34.810Z,1005.45
2018-07-14T04:17:15.338Z,1005.49
2018-07-14T04:17:55.865Z,1005.47
2018-07-14T04:18:36.394Z,1005.51
2018-07-14T04:19:16.923Z,1005.5
2018-07-14T04:19:57.444Z,1005.54
2018-07-14T04:20:37.976Z,1005.52
2018-07-14T04:21:18.506Z,1005.59
2018-07-14T04:21:59.042Z,1005.58
2018-07-14T04:22:39.562Z,1005.56
2018-07-14T04:23:20.075Z,1005.61
2018-07-14T04:24:00.596Z,1005.63
2018-07-14T04:24:41.119Z,1005.62
2018-07-14T04:25:21.632Z,1005.59
2018-07-14T04:26:02.170Z,1005.61
2018-07-14T04:26:42.695Z,1005.59
2018-07-14T04:27:23.197Z,1005.63
2018-07-14T04:28:03.719Z,1005.59
2018-07-14T04:28:44.244Z,1005.63
2018-07-14T04:29:24.760Z,1005.6
2018-07-14T04:30:05.292Z,1005.6
2018-07-14T04:30:45.820Z,1005.62
2018-07-14T04:31:26.356Z,1005.58
2018-07-14T04:32:06.875Z,1005.61
2018-07-14T04:32:47.391Z,1005.62
2018-07-14T04:33:27.912Z,1005.63
2018-07-14T04:34:08.437Z,1005.63
2018-07-14T04:34:48.945Z,1005.61
2018-07-14T04:35:29.476Z,1005.7
2018-07-14T04:36:09.999Z,1005.68
2018-07-14T04:36:50.567Z,1005.65
2018-07-14T04:37:31.117Z,1005.67
2018-07-14T04:38:11.612Z,1005.67
2018-07-14T04:38:52.137Z,1005.66
2018-07-14T04:39:32.659Z,1005.65
2018-07-14T04:40:13.189Z,1005.64
2018-07-14T04:40:53.707Z,1005.66
2018-07-14T04:41:34.231Z,1005.61
2018-07-14T04:42:14.752Z,1005.58
2018-07-14T04:42:55.276Z,1005.62
2018-07-14T04:43:35.798Z,1005.63
2018-07-14T04:44:16.325Z,1005.66
2018-07-14T04:44:56.846Z,1005.66
2018-07-14T04:45:37.352Z,1005.66
2018-07-14T04:46:17.882Z,1005.7
2018-07-14T04:46:58.404Z,1005.66
2018-07-14T04:47:38.950Z,1005.67
2018-07-14T04:49:37.111Z,1005.73
2018-07-14T04:50:17.633Z,1005.73
2018-07-14T04:50:58.166Z,1005.67
2018-07-14T04:51:38.713Z,1005.66
2018-07-14T04:52:19.218Z,1005.74
2018-07-14T04:52:59.792Z,1005.71
2018-07-14T04:53:40.270Z,1005.67
2018-07-14T04:54:20.799Z,1005.69
2018-07-14T04:55:01.328Z,1005.68
2018-07-14T04:55:41.859Z,1005.68
2018-07-14T04:56:22.364Z,1005.66
2018-07-14T04:57:02.893Z,1005.68
2018-07-14T04:57:43.414Z,1005.66
2018-07-14T04:58:23.940Z,1005.64
2018-07-14T04:59:04.452Z,1005.64
2018-07-14T04:59:44.974Z,1005.69
2018-07-14T05:00:25.493Z,1005.67
2018-07-14T05:01:06.017Z,1005.71
2018-07-14T05:01:46.532Z,1005.64
2018-07-14T05:02:27.060Z,1005.66
2018-07-14T05:03:07.592Z,1005.68
2018-07-14T05:03:48.107Z,1005.66
2018-07-14T05:04:28.629Z,1005.63
2018-07-14T05:05:09.164Z,1005.63
2018-07-14T05:05:49.688Z,1005.66
2018-07-14T05:06:30.249Z,1005.68
2018-07-14T05:07:10.715Z,1005.72
2018-07-14T05:07:51.235Z,1005.71
2018-07-14T05:08:31.753Z,1005.7
2018-07-14T05:09:12.274Z,1005.66
2018-07-14T05:09:52.794Z,1005.67
2018-07-14T05:10:33.301Z,1005.69
2018-07-14T05:11:13.825Z,1005.72
2018-07-14T05:11:54.337Z,1005.7
2018-07-14T05:12:34.883Z,1005.69
2018-07-14T05:13:15.397Z,1005.68
2018-07-14T05:13:55.939Z,1005.67
2018-07-14T05:14:36.462Z,1005.69
2018-07-14T05:15:17.001Z,1005.67
2018-07-14T05:15:57.517Z,1005.67
2018-07-14T05:16:38.133Z,1005.69
2018-07-14T05:17:18.668Z,1005.69
2018-07-14T05:17:59.198Z,1005.66
2018-07-14T05:18:39.714Z,1005.7
2018-07-14T05:19:20.231Z,1005.65
2018-07-14T05:20:00.754Z,1005.68
2018-07-14T05:20:41.293Z,1005.67
2018-07-14T05:21:21.844Z,1005.68
2018-07-14T05:22:02.337Z,1005.67
2018-07-14T05:22:42.875Z,1005.68
2018-07-14T05:23:23.405Z,1005.67
2018-07-14T05:24:03.944Z,1005.72
2018-07-14T05:24:44.454Z,1005.73
2018-07-14T05:25:24.992Z,1005.75
2018-07-14T05:26:05.511Z,1005.73
2018-07-14T05:26:46.043Z,1005.71
2018-07-14T05:27:26.558Z,1005.72
2018-07-14T05:28:07.071Z,1005.68
2018-07-14T05:28:47.608Z,1005.65
2018-07-14T05:29:28.123Z,1005.68
2018-07-14T05:30:08.642Z,1005.68
2018-07-14T05:30:49.181Z,1005.67
2018-07-14T05:31:29.707Z,1005.66
2018-07-14T05:32:10.224Z,1005.68
2018-07-14T05:32:50.757Z,1005.69
2018-07-14T05:33:31.282Z,1005.68
2018-07-14T05:34:11.792Z,1005.65
2018-07-14T05:34:52.306Z,1005.65
2018-07-14T05:35:32.823Z,1005.65
2018-07-14T05:36:13.359Z,1005.66
2018-07-14T05:36:53.875Z,1005.64
2018-07-14T05:37:34.395Z,1005.63
2018-07-14T05:38:14.911Z,1005.66
2018-07-14T05:38:55.439Z,1005.64
2018-07-14T05:39:35.952Z,1005.64
2018-07-14T05:40:16.470Z,1005.61
2018-07-14T05:40:56.982Z,1005.64
2018-07-14T05:41:37.505Z,1005.58
2018-07-14T05:42:18.021Z,1005.63
2018-07-14T05:42:58.544Z,1005.64
2018-07-14T05:43:39.073Z,1005.61
2018-07-14T05:44:19.597Z,1005.65
2018-07-14T05:45:00.149Z,1005.64
2018-07-14T05:45:40.642Z,1005.68
2018-07-14T05:46:21.173Z,1005.72
2018-07-14T05:47:01.713Z,1005.76
2018-07-14T05:47:42.239Z,1005.76
2018-07-14T05:48:22.757Z,1005.69
2018-07-14T05:49:03.285Z,1005.73
2018-07-14T05:49:43.815Z,1005.73
2018-07-14T05:50:24.325Z,1005.77
2018-07-14T05:51:04.857Z,1005.77
2018-07-14T05:51:45.379Z,1005.76
2018-07-14T05:52:25.930Z,1005.75
2018-07-14T05:53:06.458Z,1005.73
2018-07-14T05:53:47.021Z,1005.78
2018-07-14T05:54:27.533Z,1005.8
2018-07-14T05:55:08.051Z,1005.81
2018-07-14T05:55:48.578Z,1005.81
2018-07-14T05:56:29.097Z,1005.81
2018-07-14T05:57:09.637Z,1005.83
2018-07-14T05:57:50.164Z,1005.83
2018-07-14T05:58:30.718Z,1005.82
2018-07-14T05:59:11.231Z,1005.86
2018-07-14T05:59:51.756Z,1005.85
2018-07-14T06:00:32.274Z,1005.85
2018-07-14T06:01:12.790Z,1005.87
2018-07-14T06:01:53.332Z,1005.84
2018-07-14T06:02:33.850Z,1005.89
2018-07-14T06:03:14.375Z,1005.85
2018-07-14T06:03:54.903Z,1005.94
2018-07-14T06:04:35.432Z,1005.93
2018-07-14T06:05:15.970Z,1005.87
2018-07-14T06:05:56.519Z,1005.95
2018-07-14T06:06:37.036Z,1005.9
2018-07-14T06:07:17.559Z,1005.93
2018-07-14T06:07:58.081Z,1005.89
2018-07-14T06:08:38.607Z,1005.9
2018-07-14T06:09:19.132Z,1005.98
2018-07-14T06:09:59.655Z,1005.93
2018-07-14T06:10:40.180Z,1005.91
2018-07-14T06:11:20.699Z,1005.93
2018-07-14T06:12:01.231Z,1005.9
2018-07-14T06:12:41.766Z,1005.9
2018-07-14T06:13:22.304Z,1005.9
2018-07-14T06:14:02.830Z,1005.94
2018-07-14T06:14:43.358Z,1005.92
2018-07-14T06:15:23.894Z,1005.92
2018-07-14T06:16:04.435Z,1005.93
2018-07-14T06:16:44.982Z,1006.01
2018-07-14T06:17:25.535Z,1005.99
2018-07-14T06:18:06.037Z,1006
2018-07-14T06:18:46.581Z,1005.97
2018-07-14T06:19:27.107Z,1005.93
2018-07-14T06:20:07.634Z,1006
2018-07-14T06:20:48.167Z,1005.99
2018-07-14T06:21:28.694Z,1005.98
2018-07-14T06:22:09.267Z,1006.03
2018-07-14T06:22:49.786Z,1005.99
2018-07-14T06:23:30.291Z,1005.99
2018-07-14T06:24:10.817Z,1006.03
2018-07-14T06:24:51.334Z,1006.04
2018-07-14T06:25:31.851Z,1006.01
2018-07-14T06:26:12.370Z,1005.99
2018-07-14T06:26:52.896Z,1006.03
2018-07-14T06:27:33.435Z,1006.02
2018-07-14T06:28:13.959Z,1006.02
2018-07-14T06:28:54.472Z,1006
2018-07-14T06:29:34.996Z,1006.01
2018-07-14T06:30:15.530Z,1006
2018-07-14T06:30:56.055Z,1006.04
2018-07-14T06:31:36.574Z,1006.06
2018-07-14T06:32:17.100Z,1006.06
2018-07-14T06:32:57.626Z,1006.09
2018-07-14T06:33:38.143Z,1006.07
2018-07-14T06:34:18.662Z,1006.12
2018-07-14T06:34:59.187Z,1006.07
2018-07-14T06:35:39.709Z,1006.06
2018-07-14T06:36:20.229Z,1006.12
2018-07-14T06:37:00.749Z,1006.1
2018-07-14T06:37:41.272Z,1006.12
2018-07-14T06:38:21.941Z,1006.13
2018-07-14T06:39:02.308Z,1006.09
2018-07-14T06:39:42.824Z,1006.1
2018-07-14T06:40:23.346Z,1006.11
2018-07-14T06:41:03.861Z,1006.08
2018-07-14T06:41:44.370Z,1006.1
2018-07-14T06:42:24.901Z,1006.09
2018-07-14T06:43:05.427Z,1006.12
2018-07-14T06:43:45.950Z,1006.11
2018-07-14T06:44:26.484Z,1006.11
2018-07-14T06:45:07.031Z,1006.07
2018-07-14T06:45:47.545Z,1006.08
2018-07-14T06:46:28.077Z,1006.07
2018-07-14T06:47:08.593Z,1006.1
2018-07-14T06:47:49.129Z,1006.1
2018-07-14T06:48:29.647Z,1006.03
2018-07-14T06:49:10.172Z,1006.08
2018-07-14T06:49:50.744Z,1006.06
2018-07-14T06:50:31.247Z,1006.05
2018-07-14T06:51:11.783Z,1006.06
2018-07-14T06:51:52.312Z,1006.05
2018-07-14T06:52:32.845Z,1006.04
2018-07-14T06:53:13.383Z,1006.01
2018-07-14T06:53:53.915Z,1006.01
2018-07-14T06:54:34.492Z,1006.04
2018-07-14T06:55:15.011Z,1006.05
2018-07-14T06:55:55.763Z,1006.07
2018-07-14T06:56:36.430Z,1006.07
2018-07-14T06:57:16.982Z,1006.07
2018-07-14T06:57:57.535Z,1006.08
2018-07-14T06:58:38.054Z,1006.12
2018-07-14T06:59:18.886Z,1006.04
2018-07-14T06:59:59.419Z,1006.1
2018-07-14T07:00:39.957Z,1006.05
2018-07-14T07:01:20.466Z,1006.07
2018-07-14T07:02:00.980Z,1006.08
2018-07-14T07:02:41.511Z,1006.11
2018-07-14T07:03:22.093Z,1006.13
2018-07-14T07:04:02.543Z,1006.13
2018-07-14T07:04:43.080Z,1006.08
2018-07-14T07:05:23.598Z,1006.1
2018-07-14T07:06:04.141Z,1006.1
2018-07-14T07:06:45.138Z,1006.09
2018-07-14T07:07:25.358Z,1006.06
2018-07-14T07:08:05.892Z,1006.08
2018-07-14T07:08:46.435Z,1006.09
2018-07-14T07:09:26.940Z,1006.08
2018-07-14T07:10:08.477Z,1006.08
2018-07-14T07:10:49.059Z,1006.12
2018-07-14T07:11:29.578Z,1006.12
2018-07-14T07:12:10.106Z,1006.16
2018-07-14T07:12:50.626Z,1006.13
2018-07-14T07:13:31.154Z,1006.12
2018-07-14T07:14:11.802Z,1006.15
2018-07-14T07:14:52.332Z,1006.18
2018-07-14T07:15:32.845Z,1006.19
2018-07-14T07:16:13.374Z,1006.16
2018-07-14T07:16:53.904Z,1006.16
2018-07-14T07:17:34.444Z,1006.16
2018-07-14T07:18:14.954Z,1006.16
2018-07-14T07:18:55.469Z,1006.12
2018-07-14T07:19:36.001Z,1006.12
2018-07-14T07:20:16.531Z,1006.14
2018-07-14T07:20:57.044Z,1006.09
2018-07-14T07:21:37.558Z,1006.22
2018-07-14T07:22:18.078Z,1006.15
2018-07-14T07:22:58.584Z,1006.16
2018-07-14T07:23:39.130Z,1006.18
2018-07-14T07:24:19.653Z,1006.13
2018-07-14T07:25:00.207Z,1006.1
2018-07-14T07:25:40.729Z,1006.13
2018-07-14T07:26:21.262Z,1006.15
2018-07-14T07:27:01.805Z,1006.12
2018-07-14T07:27:42.327Z,1006.09
2018-07-14T07:28:22.859Z,1006.1
2018-07-14T07:29:03.419Z,1006.1
2018-07-14T07:29:43.904Z,1006.07
2018-07-14T07:30:24.431Z,1006.09
2018-07-14T07:31:04.953Z,1006.1
2018-07-14T07:31:45.506Z,1006.11
2018-07-14T07:32:26.026Z,1006.15
2018-07-14T07:33:06.579Z,1006.1
2018-07-14T07:33:47.100Z,1006.09
2018-07-14T07:34:27.652Z,1006.12
2018-07-14T07:35:08.170Z,1006.1
2018-07-14T07:35:48.717Z,1006.1
2018-07-14T07:36:29.367Z,1006.14
2018-07-14T07:37:09.927Z,1006.17
2018-07-14T07:37:50.426Z,1006.12
2018-07-14T07:38:30.941Z,1006.11
2018-07-14T07:39:11.460Z,1006.17
2018-07-14T07:39:51.999Z,1006.19
2018-07-14T07:40:32.504Z,1006.13
2018-07-14T07:41:13.036Z,1006.2
2018-07-14T07:41:53.563Z,1006.15
2018-07-14T07:42:34.086Z,1006.19
2018-07-14T07:43:14.679Z,1006.17
2018-07-14T07:43:55.144Z,1006.17
2018-07-14T07:44:35.656Z,1006.15
2018-07-14T07:45:16.171Z,1006.19
2018-07-14T07:45:56.694Z,1006.19
2018-07-14T07:46:37.227Z,1006.19
2018-07-14T07:47:17.760Z,1006.1
2018-07-14T07:47:58.280Z,1006.15
2018-07-14T07:48:38.807Z,1006.15
2018-07-14T07:49:19.353Z,1006.14
2018-07-14T07:49:59.885Z,1006.19
2018-07-14T07:50:40.437Z,1006.17
2018-07-14T07:51:20.958Z,1006.21
2018-07-14T07:52:01.501Z,1006.22
2018-07-14T07:52:42.016Z,1006.16
2018-07-14T07:53:22.541Z,1006.17
2018-07-14T07:54:03.065Z,1006.21
2018-07-14T07:54:43.593Z,1006.13
2018-07-14T07:55:24.132Z,1006.12
2018-07-14T07:56:04.659Z,1006.12
2018-07-14T07:56:45.194Z,1006.09
2018-07-14T07:57:25.711Z,1006.11
2018-07-14T07:58:06.237Z,1006.13
2018-07-14T07:58:46.753Z,1006.13
2018-07-14T07:59:27.277Z,1006.17
2018-07-14T08:00:07.849Z,1006.16
2018-07-14T08:00:48.377Z,1006.15
2018-07-14T08:01:28.895Z,1006.17
2018-07-14T08:02:09.416Z,1006.15
2018-07-14T08:02:49.979Z,1006.14
2018-07-14T08:03:30.521Z,1006.18
2018-07-14T08:04:11.050Z,1006.2
2018-07-14T08:04:51.577Z,1006.18
2018-07-14T08:05:32.135Z,1006.18
2018-07-14T08:06:12.621Z,1006.17
2018-07-14T08:06:53.141Z,1006.15
2018-07-14T08:07:33.668Z,1006.17
2018-07-14T08:08:14.191Z,1006.18
2018-07-14T08:08:54.741Z,1006.21
2018-07-14T08:09:35.253Z,1006.17
2018-07-14T08:10:15.793Z,1006.16
2018-07-14T08:10:56.346Z,1006.19
2018-07-14T08:11:36.922Z,1006.13
2018-07-14T08:12:17.437Z,1006.11
2018-07-14T08:12:57.977Z,1006.15
2018-07-14T08:13:38.505Z,1006.17